sensor_id;sensor_type;location;lat;lon;timestamp;P1;durP1;ratioP1;P2;durP2;ratioP2
62994;SDS011;49086;52.300;4.850;2022-09-03T00:01:58;3.92;;;1.95;;
62994;SDS011;49086;52.300;4.850;2022-09-03T00:07:46;3.63;;;1.90;;
62994;SDS011;49086;52.300;4.850;2022-09-03T00:10:42;4.85;;;1.83;;
62994;SDS011;49086;52.300;4.850;2022-09-03T00:13:52;4.15;;;1.75;;
62994;SDS011;49086;52.300;4.850;2022-09-03T00:16:43;3.85;;;1.85;;
62994;SDS011;49086;52.300;4.850;2022-09-03T00:19:27;3.97;;;1.77;;
62994;SDS011;49086;52.300;4.850;2022-09-03T00:22:01;2.60;;;1.67;;
62994;SDS011;49086;52.300;4.850;2022-09-03T00:24:34;2.80;;;1.67;;
62994;SDS011;49086;52.300;4.850;2022-09-03T00:27:04;2.92;;;1.80;;
62994;SDS011;49086;52.300;4.850;2022-09-03T00:29:35;4.50;;;1.70;;
62994;SDS011;49086;52.300;4.850;2022-09-03T00:32:16;3.10;;;1.70;;
62994;SDS011;49086;52.300;4.850;2022-09-03T00:34:46;3.10;;;1.80;;
62994;SDS011;49086;52.300;4.850;2022-09-03T00:37:17;5.97;;;2.40;;
62994;SDS011;49086;52.300;4.850;2022-09-03T00:39:43;5.40;;;1.70;;
62994;SDS011;49086;52.300;4.850;2022-09-03T00:45:10;3.75;;;1.75;;
62994;SDS011;49086;52.300;4.850;2022-09-03T00:48:15;4.47;;;2.00;;
62994;SDS011;49086;52.300;4.850;2022-09-03T00:54:17;5.22;;;1.85;;
62994;SDS011;49086;52.300;4.850;2022-09-03T00:59:36;3.72;;;1.50;;
62994;SDS011;49086;52.300;4.850;2022-09-03T01:05:27;3.35;;;1.88;;
62994;SDS011;49086;52.300;4.850;2022-09-03T01:14:25;5.32;;;1.95;;
62994;SDS011;49086;52.300;4.850;2022-09-03T01:17:01;2.88;;;1.90;;
62994;SDS011;49086;52.300;4.850;2022-09-03T01:19:42;4.45;;;2.00;;
62994;SDS011;49086;52.300;4.850;2022-09-03T01:22:52;3.92;;;1.67;;
62994;SDS011;49086;52.300;4.850;2022-09-03T01:25:48;3.08;;;1.70;;
62994;SDS011;49086;52.300;4.850;2022-09-03T01:28:53;3.38;;;1.88;;
62994;SDS011;49086;52.300;4.850;2022-09-03T01:42:18;3.10;;;1.70;;
62994;SDS011;49086;52.300;4.850;2022-09-03T01:45:16;2.90;;;1.83;;
62994;SDS011;49086;52.300;4.850;2022-09-03T01:51:04;5.45;;;1.85;;
62994;SDS011;49086;52.300;4.850;2022-09-03T01:59:27;5.45;;;2.10;;
62994;SDS011;49086;52.300;4.850;2022-09-03T02:02:25;3.38;;;1.60;;
62994;SDS011;49086;52.300;4.850;2022-09-03T02:04:57;5.50;;;1.75;;
62994;SDS011;49086;52.300;4.850;2022-09-03T02:07:42;3.65;;;1.70;;
62994;SDS011;49086;52.300;4.850;2022-09-03T02:10:20;4.35;;;2.03;;
62994;SDS011;49086;52.300;4.850;2022-09-03T02:12:52;3.15;;;1.90;;
62994;SDS011;49086;52.300;4.850;2022-09-03T02:15:22;4.70;;;2.03;;
62994;SDS011;49086;52.300;4.850;2022-09-03T02:17:56;2.90;;;1.77;;
62994;SDS011;49086;52.300;4.850;2022-09-03T02:20:26;4.28;;;1.70;;
62994;SDS011;49086;52.300;4.850;2022-09-03T02:22:56;5.15;;;1.80;;
62994;SDS011;49086;52.300;4.850;2022-09-03T02:25:27;5.38;;;1.77;;
62994;SDS011;49086;52.300;4.850;2022-09-03T02:27:58;3.65;;;1.90;;
62994;SDS011;49086;52.300;4.850;2022-09-03T02:30:30;4.50;;;1.75;;
62994;SDS011;49086;52.300;4.850;2022-09-03T02:32:56;3.88;;;2.25;;
62994;SDS011;49086;52.300;4.850;2022-09-03T02:35:21;3.58;;;1.70;;
62994;SDS011;49086;52.300;4.850;2022-09-03T02:37:53;3.28;;;1.77;;
62994;SDS011;49086;52.300;4.850;2022-09-03T02:40:21;4.80;;;1.63;;
62994;SDS011;49086;52.300;4.850;2022-09-03T02:42:46;3.65;;;1.77;;
62994;SDS011;49086;52.300;4.850;2022-09-03T02:48:13;7.20;;;1.92;;
62994;SDS011;49086;52.300;4.850;2022-09-03T02:50:46;6.43;;;2.10;;
62994;SDS011;49086;52.300;4.850;2022-09-03T02:53:13;4.80;;;1.75;;
62994;SDS011;49086;52.300;4.850;2022-09-03T02:55:39;5.40;;;1.85;;
62994;SDS011;49086;52.300;4.850;2022-09-03T02:58:07;4.63;;;1.80;;
62994;SDS011;49086;52.300;4.850;2022-09-03T03:00:33;4.78;;;1.80;;
62994;SDS011;49086;52.300;4.850;2022-09-03T03:03:03;4.03;;;1.90;;
62994;SDS011;49086;52.300;4.850;2022-09-03T03:05:50;2.50;;;1.60;;
62994;SDS011;49086;52.300;4.850;2022-09-03T03:08:18;3.22;;;2.03;;
62994;SDS011;49086;52.300;4.850;2022-09-03T03:10:53;7.05;;;2.00;;
62994;SDS011;49086;52.300;4.850;2022-09-03T03:13:26;4.35;;;1.75;;
62994;SDS011;49086;52.300;4.850;2022-09-03T03:16:01;3.42;;;1.90;;
62994;SDS011;49086;52.300;4.850;2022-09-03T03:18:39;4.75;;;1.80;;
62994;SDS011;49086;52.300;4.850;2022-09-03T03:21:05;4.15;;;1.73;;
62994;SDS011;49086;52.300;4.850;2022-09-03T03:23:36;3.17;;;1.70;;
62994;SDS011;49086;52.300;4.850;2022-09-03T03:26:06;4.35;;;1.60;;
62994;SDS011;49086;52.300;4.850;2022-09-03T03:28:34;3.53;;;2.33;;
62994;SDS011;49086;52.300;4.850;2022-09-03T03:31:27;3.30;;;1.90;;
62994;SDS011;49086;52.300;4.850;2022-09-03T03:33:57;4.30;;;1.70;;
62994;SDS011;49086;52.300;4.850;2022-09-03T03:36:29;3.60;;;1.80;;
62994;SDS011;49086;52.300;4.850;2022-09-03T03:39:01;3.55;;;1.75;;
62994;SDS011;49086;52.300;4.850;2022-09-03T03:41:31;2.97;;;1.70;;
62994;SDS011;49086;52.300;4.850;2022-09-03T03:44:05;4.15;;;1.80;;
62994;SDS011;49086;52.300;4.850;2022-09-03T03:46:33;4.18;;;1.88;;
62994;SDS011;49086;52.300;4.850;2022-09-03T03:49:02;2.90;;;1.85;;
62994;SDS011;49086;52.300;4.850;2022-09-03T03:51:31;3.53;;;1.80;;
62994;SDS011;49086;52.300;4.850;2022-09-03T03:53:59;4.25;;;2.03;;
62994;SDS011;49086;52.300;4.850;2022-09-03T03:56:25;4.15;;;1.98;;
62994;SDS011;49086;52.300;4.850;2022-09-03T03:58:52;4.20;;;2.03;;
62994;SDS011;49086;52.300;4.850;2022-09-03T04:01:22;3.65;;;1.75;;
62994;SDS011;49086;52.300;4.850;2022-09-03T04:03:55;3.50;;;1.85;;
62994;SDS011;49086;52.300;4.850;2022-09-03T04:06:25;4.18;;;2.00;;
62994;SDS011;49086;52.300;4.850;2022-09-03T04:08:52;5.93;;;1.80;;
62994;SDS011;49086;52.300;4.850;2022-09-03T04:11:20;3.95;;;1.83;;
62994;SDS011;49086;52.300;4.850;2022-09-03T04:13:51;3.58;;;2.20;;
62994;SDS011;49086;52.300;4.850;2022-09-03T04:16:24;3.63;;;1.65;;
62994;SDS011;49086;52.300;4.850;2022-09-03T04:18:52;4.50;;;1.85;;
62994;SDS011;49086;52.300;4.850;2022-09-03T04:21:27;3.42;;;1.75;;
62994;SDS011;49086;52.300;4.850;2022-09-03T04:23:57;6.33;;;1.87;;
62994;SDS011;49086;52.300;4.850;2022-09-03T04:26:25;3.90;;;1.80;;
62994;SDS011;49086;52.300;4.850;2022-09-03T04:28:59;3.30;;;1.83;;
62994;SDS011;49086;52.300;4.850;2022-09-03T04:31:27;3.58;;;1.90;;
62994;SDS011;49086;52.300;4.850;2022-09-03T04:33:53;2.80;;;1.90;;
62994;SDS011;49086;52.300;4.850;2022-09-03T04:36:22;6.40;;;2.00;;
62994;SDS011;49086;52.300;4.850;2022-09-03T04:38:50;7.15;;;1.77;;
62994;SDS011;49086;52.300;4.850;2022-09-03T04:41:19;6.50;;;2.30;;
62994;SDS011;49086;52.300;4.850;2022-09-03T04:43:50;4.25;;;2.17;;
62994;SDS011;49086;52.300;4.850;2022-09-03T04:46:18;4.28;;;1.85;;
62994;SDS011;49086;52.300;4.850;2022-09-03T04:48:46;3.83;;;1.60;;
62994;SDS011;49086;52.300;4.850;2022-09-03T04:51:15;2.78;;;1.58;;
62994;SDS011;49086;52.300;4.850;2022-09-03T04:53:44;3.90;;;1.95;;
62994;SDS011;49086;52.300;4.850;2022-09-03T04:56:18;2.83;;;1.60;;
62994;SDS011;49086;52.300;4.850;2022-09-03T04:58:46;5.35;;;1.67;;
62994;SDS011;49086;52.300;4.850;2022-09-03T05:01:15;2.70;;;1.70;;
62994;SDS011;49086;52.300;4.850;2022-09-03T05:03:45;4.13;;;1.90;;
62994;SDS011;49086;52.300;4.850;2022-09-03T05:06:13;5.88;;;1.70;;
62994;SDS011;49086;52.300;4.850;2022-09-03T05:08:41;3.70;;;1.83;;
62994;SDS011;49086;52.300;4.850;2022-09-03T05:11:13;3.05;;;1.70;;
62994;SDS011;49086;52.300;4.850;2022-09-03T05:13:56;2.83;;;1.70;;
62994;SDS011;49086;52.300;4.850;2022-09-03T05:16:23;4.93;;;1.80;;
62994;SDS011;49086;52.300;4.850;2022-09-03T05:18:52;3.70;;;1.80;;
62994;SDS011;49086;52.300;4.850;2022-09-03T05:21:20;2.88;;;1.60;;
62994;SDS011;49086;52.300;4.850;2022-09-03T05:23:48;3.40;;;2.05;;
62994;SDS011;49086;52.300;4.850;2022-09-03T05:26:16;3.78;;;1.70;;
62994;SDS011;49086;52.300;4.850;2022-09-03T05:28:51;6.03;;;1.60;;
62994;SDS011;49086;52.300;4.850;2022-09-03T05:31:27;3.10;;;1.70;;
62994;SDS011;49086;52.300;4.850;2022-09-03T05:33:56;3.72;;;1.80;;
62994;SDS011;49086;52.300;4.850;2022-09-03T05:36:28;3.47;;;1.80;;
62994;SDS011;49086;52.300;4.850;2022-09-03T05:39:00;2.67;;;1.70;;
62994;SDS011;49086;52.300;4.850;2022-09-03T05:41:27;4.05;;;1.83;;
62994;SDS011;49086;52.300;4.850;2022-09-03T05:43:54;4.65;;;2.00;;
62994;SDS011;49086;52.300;4.850;2022-09-03T05:46:23;4.05;;;1.90;;
62994;SDS011;49086;52.300;4.850;2022-09-03T05:49:05;4.68;;;1.80;;
62994;SDS011;49086;52.300;4.850;2022-09-03T05:51:31;4.25;;;1.95;;
62994;SDS011;49086;52.300;4.850;2022-09-03T05:54:00;2.65;;;1.65;;
62994;SDS011;49086;52.300;4.850;2022-09-03T05:56:27;3.13;;;1.80;;
62994;SDS011;49086;52.300;4.850;2022-09-03T05:58:58;4.53;;;1.70;;
62994;SDS011;49086;52.300;4.850;2022-09-03T06:01:29;3.78;;;1.90;;
62994;SDS011;49086;52.300;4.850;2022-09-03T06:04:03;5.13;;;2.20;;
62994;SDS011;49086;52.300;4.850;2022-09-03T06:06:31;3.45;;;1.60;;
62994;SDS011;49086;52.300;4.850;2022-09-03T06:09:09;3.40;;;2.13;;
62994;SDS011;49086;52.300;4.850;2022-09-03T06:11:44;3.33;;;2.10;;
62994;SDS011;49086;52.300;4.850;2022-09-03T06:14:12;3.38;;;1.73;;
62994;SDS011;49086;52.300;4.850;2022-09-03T06:16:45;10.15;;;3.25;;
62994;SDS011;49086;52.300;4.850;2022-09-03T06:19:16;6.57;;;1.75;;
62994;SDS011;49086;52.300;4.850;2022-09-03T06:21:44;3.28;;;1.80;;
62994;SDS011;49086;52.300;4.850;2022-09-03T06:24:15;6.55;;;2.05;;
62994;SDS011;49086;52.300;4.850;2022-09-03T06:26:43;3.00;;;1.70;;
62994;SDS011;49086;52.300;4.850;2022-09-03T06:29:09;7.03;;;1.90;;
62994;SDS011;49086;52.300;4.850;2022-09-03T06:31:35;5.85;;;1.90;;
62994;SDS011;49086;52.300;4.850;2022-09-03T06:34:00;6.65;;;2.13;;
62994;SDS011;49086;52.300;4.850;2022-09-03T06:36:27;7.78;;;2.10;;
62994;SDS011;49086;52.300;4.850;2022-09-03T06:38:55;4.03;;;2.00;;
62994;SDS011;49086;52.300;4.850;2022-09-03T06:41:29;3.58;;;2.10;;
62994;SDS011;49086;52.300;4.850;2022-09-03T06:44:16;4.95;;;1.80;;
62994;SDS011;49086;52.300;4.850;2022-09-03T06:46:41;3.05;;;1.80;;
62994;SDS011;49086;52.300;4.850;2022-09-03T06:49:07;4.57;;;1.83;;
62994;SDS011;49086;52.300;4.850;2022-09-03T06:51:34;5.38;;;2.55;;
62994;SDS011;49086;52.300;4.850;2022-09-03T06:54:05;7.13;;;1.80;;
62994;SDS011;49086;52.300;4.850;2022-09-03T06:56:32;4.95;;;2.00;;
62994;SDS011;49086;52.300;4.850;2022-09-03T06:59:04;4.55;;;1.67;;
62994;SDS011;49086;52.300;4.850;2022-09-03T07:01:32;6.10;;;1.95;;
62994;SDS011;49086;52.300;4.850;2022-09-03T07:06:34;3.55;;;1.92;;
62994;SDS011;49086;52.300;4.850;2022-09-03T07:09:05;7.85;;;2.00;;
62994;SDS011;49086;52.300;4.850;2022-09-03T07:11:36;4.72;;;1.73;;
62994;SDS011;49086;52.300;4.850;2022-09-03T07:14:15;6.25;;;1.63;;
62994;SDS011;49086;52.300;4.850;2022-09-03T07:16:44;4.13;;;1.73;;
62994;SDS011;49086;52.300;4.850;2022-09-03T07:19:16;3.50;;;1.80;;
62994;SDS011;49086;52.300;4.850;2022-09-03T07:21:44;3.03;;;1.58;;
62994;SDS011;49086;52.300;4.850;2022-09-03T07:24:14;6.13;;;1.95;;
62994;SDS011;49086;52.300;4.850;2022-09-03T07:26:41;4.50;;;2.00;;
62994;SDS011;49086;52.300;4.850;2022-09-03T07:29:15;5.93;;;2.13;;
62994;SDS011;49086;52.300;4.850;2022-09-03T07:31:49;2.90;;;1.60;;
62994;SDS011;49086;52.300;4.850;2022-09-03T07:34:17;5.30;;;1.77;;
62994;SDS011;49086;52.300;4.850;2022-09-03T07:36:54;5.97;;;1.70;;
62994;SDS011;49086;52.300;4.850;2022-09-03T07:39:41;3.40;;;1.70;;
62994;SDS011;49086;52.300;4.850;2022-09-03T07:42:06;3.78;;;1.70;;
62994;SDS011;49086;52.300;4.850;2022-09-03T07:44:38;4.95;;;1.65;;
62994;SDS011;49086;52.300;4.850;2022-09-03T07:47:06;4.60;;;2.13;;
62994;SDS011;49086;52.300;4.850;2022-09-03T07:49:34;2.92;;;1.63;;
62994;SDS011;49086;52.300;4.850;2022-09-03T07:52:00;4.55;;;2.10;;
62994;SDS011;49086;52.300;4.850;2022-09-03T07:54:28;8.45;;;1.70;;
62994;SDS011;49086;52.300;4.850;2022-09-03T07:56:55;4.40;;;1.73;;
62994;SDS011;49086;52.300;4.850;2022-09-03T07:59:32;7.72;;;1.55;;
62994;SDS011;49086;52.300;4.850;2022-09-03T08:02:01;4.07;;;1.73;;
62994;SDS011;49086;52.300;4.850;2022-09-03T08:04:38;3.95;;;1.52;;
62994;SDS011;49086;52.300;4.850;2022-09-03T08:07:05;5.22;;;1.75;;
62994;SDS011;49086;52.300;4.850;2022-09-03T08:09:31;3.60;;;1.33;;
62994;SDS011;49086;52.300;4.850;2022-09-03T08:12:03;4.90;;;1.60;;
62994;SDS011;49086;52.300;4.850;2022-09-03T08:14:36;6.18;;;1.60;;
62994;SDS011;49086;52.300;4.850;2022-09-03T08:17:23;6.90;;;2.03;;
62994;SDS011;49086;52.300;4.850;2022-09-03T08:21:02;4.35;;;2.05;;
62994;SDS011;49086;52.300;4.850;2022-09-03T08:23:37;2.97;;;1.70;;
62994;SDS011;49086;52.300;4.850;2022-09-03T08:27:27;7.13;;;1.60;;
62994;SDS011;49086;52.300;4.850;2022-09-03T08:30:34;4.18;;;1.80;;
62994;SDS011;49086;52.300;4.850;2022-09-03T08:33:47;4.35;;;1.60;;
62994;SDS011;49086;52.300;4.850;2022-09-03T08:39:58;6.40;;;2.00;;
62994;SDS011;49086;52.300;4.850;2022-09-03T08:46:48;18.42;;;3.88;;
62994;SDS011;49086;52.300;4.850;2022-09-03T08:52:48;8.48;;;2.10;;
62994;SDS011;49086;52.300;4.850;2022-09-03T08:55:25;5.78;;;1.40;;
62994;SDS011;49086;52.300;4.850;2022-09-03T08:57:58;4.97;;;1.58;;
62994;SDS011;49086;52.300;4.850;2022-09-03T09:00:39;4.07;;;1.58;;
62994;SDS011;49086;52.300;4.850;2022-09-03T09:04:03;3.92;;;1.50;;
62994;SDS011;49086;52.300;4.850;2022-09-03T09:07:10;3.88;;;1.80;;
62994;SDS011;49086;52.300;4.850;2022-09-03T09:10:00;5.03;;;1.60;;
62994;SDS011;49086;52.300;4.850;2022-09-03T09:17:44;8.68;;;1.98;;
62994;SDS011;49086;52.300;4.850;2022-09-03T09:23:12;36.00;;;6.93;;
62994;SDS011;49086;52.300;4.850;2022-09-03T09:26:04;7.78;;;3.17;;
62994;SDS011;49086;52.300;4.850;2022-09-03T09:28:39;5.40;;;1.90;;
62994;SDS011;49086;52.300;4.850;2022-09-03T09:31:15;4.97;;;1.90;;
62994;SDS011;49086;52.300;4.850;2022-09-03T09:33:44;3.47;;;1.50;;
62994;SDS011;49086;52.300;4.850;2022-09-03T09:36:29;4.68;;;1.40;;
62994;SDS011;49086;52.300;4.850;2022-09-03T09:39:10;5.53;;;1.70;;
62994;SDS011;49086;52.300;4.850;2022-09-03T09:41:37;4.22;;;1.40;;
62994;SDS011;49086;52.300;4.850;2022-09-03T09:44:28;3.05;;;1.75;;
62994;SDS011;49086;52.300;4.850;2022-09-03T09:49:59;5.05;;;1.67;;
62994;SDS011;49086;52.300;4.850;2022-09-03T09:52:41;2.60;;;1.50;;
62994;SDS011;49086;52.300;4.850;2022-09-03T09:55:17;3.92;;;1.60;;
62994;SDS011;49086;52.300;4.850;2022-09-03T09:58:29;5.22;;;1.58;;
62994;SDS011;49086;52.300;4.850;2022-09-03T10:04:12;3.30;;;1.80;;
62994;SDS011;49086;52.300;4.850;2022-09-03T10:13:00;13.50;;;3.17;;
62994;SDS011;49086;52.300;4.850;2022-09-03T10:16:00;5.13;;;1.85;;
62994;SDS011;49086;52.300;4.850;2022-09-03T10:19:03;3.80;;;1.40;;
62994;SDS011;49086;52.300;4.850;2022-09-03T10:22:15;4.30;;;1.42;;
62994;SDS011;49086;52.300;4.850;2022-09-03T10:24:57;3.13;;;1.50;;
62994;SDS011;49086;52.300;4.850;2022-09-03T10:27:54;11.18;;;2.28;;
62994;SDS011;49086;52.300;4.850;2022-09-03T10:30:48;4.70;;;2.13;;
62994;SDS011;49086;52.300;4.850;2022-09-03T10:33:26;4.35;;;1.45;;
62994;SDS011;49086;52.300;4.850;2022-09-03T10:36:10;4.78;;;1.50;;
62994;SDS011;49086;52.300;4.850;2022-09-03T10:51:24;3.67;;;1.50;;
62994;SDS011;49086;52.300;4.850;2022-09-03T10:54:51;3.45;;;1.50;;
62994;SDS011;49086;52.300;4.850;2022-09-03T10:57:57;4.30;;;1.50;;
62994;SDS011;49086;52.300;4.850;2022-09-03T11:00:50;2.88;;;1.50;;
62994;SDS011;49086;52.300;4.850;2022-09-03T11:06:41;7.15;;;2.80;;
62994;SDS011;49086;52.300;4.850;2022-09-03T11:09:40;3.30;;;1.25;;
62994;SDS011;49086;52.300;4.850;2022-09-03T11:13:08;3.72;;;1.27;;
62994;SDS011;49086;52.300;4.850;2022-09-03T11:16:25;3.80;;;1.38;;
62994;SDS011;49086;52.300;4.850;2022-09-03T11:19:47;3.72;;;1.30;;
62994;SDS011;49086;52.300;4.850;2022-09-03T11:22:19;6.90;;;1.60;;
62994;SDS011;49086;52.300;4.850;2022-09-03T11:24:54;3.83;;;1.58;;
62994;SDS011;49086;52.300;4.850;2022-09-03T11:38:01;4.13;;;1.50;;
62994;SDS011;49086;52.300;4.850;2022-09-03T11:43:54;4.15;;;1.40;;
62994;SDS011;49086;52.300;4.850;2022-09-03T11:47:20;2.55;;;1.33;;
62994;SDS011;49086;52.300;4.850;2022-09-03T11:50:30;2.35;;;1.20;;
62994;SDS011;49086;52.300;4.850;2022-09-03T11:53:32;6.18;;;1.50;;
62994;SDS011;49086;52.300;4.850;2022-09-03T11:56:41;4.70;;;1.30;;
62994;SDS011;49086;52.300;4.850;2022-09-03T12:03:01;3.50;;;1.40;;
62994;SDS011;49086;52.300;4.850;2022-09-03T12:06:12;3.80;;;1.48;;
62994;SDS011;49086;52.300;4.850;2022-09-03T12:09:21;4.32;;;1.52;;
62994;SDS011;49086;52.300;4.850;2022-09-03T12:12:11;4.72;;;1.40;;
62994;SDS011;49086;52.300;4.850;2022-09-03T12:17:51;4.35;;;1.38;;
62994;SDS011;49086;52.300;4.850;2022-09-03T12:20:40;3.20;;;1.30;;
62994;SDS011;49086;52.300;4.850;2022-09-03T12:23:09;9.90;;;1.55;;
62994;SDS011;49086;52.300;4.850;2022-09-03T12:25:53;7.13;;;1.42;;
62994;SDS011;49086;52.300;4.850;2022-09-03T12:28:30;4.55;;;1.60;;
62994;SDS011;49086;52.300;4.850;2022-09-03T12:31:21;4.30;;;1.42;;
62994;SDS011;49086;52.300;4.850;2022-09-03T12:34:10;2.55;;;1.33;;
62994;SDS011;49086;52.300;4.850;2022-09-03T12:39:30;6.13;;;1.38;;
62994;SDS011;49086;52.300;4.850;2022-09-03T12:41:59;2.53;;;1.38;;
62994;SDS011;49086;52.300;4.850;2022-09-03T12:45:04;4.53;;;1.38;;
62994;SDS011;49086;52.300;4.850;2022-09-03T12:47:39;6.18;;;1.55;;
62994;SDS011;49086;52.300;4.850;2022-09-03T12:50:09;3.55;;;1.50;;
62994;SDS011;49086;52.300;4.850;2022-09-03T12:55:45;3.13;;;1.20;;
62994;SDS011;49086;52.300;4.850;2022-09-03T12:58:25;4.15;;;1.30;;
62994;SDS011;49086;52.300;4.850;2022-09-03T13:01:14;4.97;;;1.50;;
62994;SDS011;49086;52.300;4.850;2022-09-03T13:10:06;3.42;;;1.60;;
62994;SDS011;49086;52.300;4.850;2022-09-03T13:23:07;2.33;;;1.30;;
62994;SDS011;49086;52.300;4.850;2022-09-03T13:31:49;3.80;;;1.40;;
62994;SDS011;49086;52.300;4.850;2022-09-03T13:34:53;8.85;;;2.22;;
62994;SDS011;49086;52.300;4.850;2022-09-03T13:46:54;5.43;;;1.45;;
62994;SDS011;49086;52.300;4.850;2022-09-03T13:52:50;2.80;;;1.40;;
62994;SDS011;49086;52.300;4.850;2022-09-03T13:55:46;7.47;;;2.00;;
62994;SDS011;49086;52.300;4.850;2022-09-03T14:12:16;4.88;;;1.67;;
62994;SDS011;49086;52.300;4.850;2022-09-03T14:15:31;3.00;;;1.30;;
62994;SDS011;49086;52.300;4.850;2022-09-03T14:21:46;2.63;;;1.45;;
62994;SDS011;49086;52.300;4.850;2022-09-03T14:24:52;3.33;;;1.58;;
62994;SDS011;49086;52.300;4.850;2022-09-03T14:27:43;4.35;;;1.40;;
62994;SDS011;49086;52.300;4.850;2022-09-03T14:30:24;2.80;;;1.38;;
62994;SDS011;49086;52.300;4.850;2022-09-03T14:33:27;3.03;;;1.50;;
62994;SDS011;49086;52.300;4.850;2022-09-03T14:39:24;4.05;;;1.52;;
62994;SDS011;49086;52.300;4.850;2022-09-03T14:42:20;5.35;;;1.52;;
62994;SDS011;49086;52.300;4.850;2022-09-03T14:57:27;2.38;;;1.40;;
62994;SDS011;49086;52.300;4.850;2022-09-03T15:03:38;3.70;;;1.52;;
62994;SDS011;49086;52.300;4.850;2022-09-03T15:06:37;2.10;;;1.27;;
62994;SDS011;49086;52.300;4.850;2022-09-03T15:12:39;2.40;;;1.42;;
62994;SDS011;49086;52.300;4.850;2022-09-03T15:15:17;3.20;;;1.50;;
62994;SDS011;49086;52.300;4.850;2022-09-03T15:30:20;2.55;;;1.40;;
62994;SDS011;49086;52.300;4.850;2022-09-03T15:32:57;2.70;;;1.50;;
62994;SDS011;49086;52.300;4.850;2022-09-03T15:36:13;4.60;;;1.85;;
62994;SDS011;49086;52.300;4.850;2022-09-03T15:39:01;3.33;;;1.77;;
62994;SDS011;49086;52.300;4.850;2022-09-03T15:41:39;2.75;;;1.52;;
62994;SDS011;49086;52.300;4.850;2022-09-03T15:44:25;6.43;;;1.45;;
62994;SDS011;49086;52.300;4.850;2022-09-03T15:47:02;3.90;;;2.80;;
62994;SDS011;49086;52.300;4.850;2022-09-03T15:52:48;3.95;;;1.50;;
62994;SDS011;49086;52.300;4.850;2022-09-03T15:55:39;3.75;;;1.60;;
62994;SDS011;49086;52.300;4.850;2022-09-03T15:58:19;4.85;;;1.73;;
62994;SDS011;49086;52.300;4.850;2022-09-03T16:01:23;2.78;;;1.50;;
62994;SDS011;49086;52.300;4.850;2022-09-03T16:04:24;3.15;;;1.67;;
62994;SDS011;49086;52.300;4.850;2022-09-03T16:07:25;5.70;;;1.85;;
62994;SDS011;49086;52.300;4.850;2022-09-03T16:17:12;3.33;;;1.77;;
62994;SDS011;49086;52.300;4.850;2022-09-03T16:20:06;4.03;;;2.60;;
62994;SDS011;49086;52.300;4.850;2022-09-03T16:26:04;4.88;;;1.70;;
62994;SDS011;49086;52.300;4.850;2022-09-03T16:28:42;6.75;;;2.00;;
62994;SDS011;49086;52.300;4.850;2022-09-03T16:43:07;6.75;;;1.95;;
62994;SDS011;49086;52.300;4.850;2022-09-03T16:45:59;3.88;;;2.35;;
62994;SDS011;49086;52.300;4.850;2022-09-03T16:54:22;2.40;;;1.30;;
62994;SDS011;49086;52.300;4.850;2022-09-03T16:57:32;5.32;;;1.77;;
62994;SDS011;49086;52.300;4.850;2022-09-03T17:00:25;3.58;;;1.45;;
62994;SDS011;49086;52.300;4.850;2022-09-03T17:12:09;7.60;;;1.73;;
62994;SDS011;49086;52.300;4.850;2022-09-03T17:15:02;3.70;;;1.55;;
62994;SDS011;49086;52.300;4.850;2022-09-03T17:24:12;8.68;;;2.10;;
62994;SDS011;49086;52.300;4.850;2022-09-03T17:29:43;3.38;;;1.58;;
62994;SDS011;49086;52.300;4.850;2022-09-03T17:33:03;7.25;;;1.63;;
62994;SDS011;49086;52.300;4.850;2022-09-03T17:45:02;4.22;;;1.63;;
62994;SDS011;49086;52.300;4.850;2022-09-03T17:54:14;10.20;;;1.80;;
62994;SDS011;49086;52.300;4.850;2022-09-03T17:57:20;3.58;;;1.60;;
62994;SDS011;49086;52.300;4.850;2022-09-03T18:00:07;4.88;;;1.70;;
62994;SDS011;49086;52.300;4.850;2022-09-03T18:05:40;3.45;;;1.88;;
62994;SDS011;49086;52.300;4.850;2022-09-03T18:08:25;4.22;;;2.00;;
62994;SDS011;49086;52.300;4.850;2022-09-03T18:14:16;5.25;;;2.63;;
62994;SDS011;49086;52.300;4.850;2022-09-03T18:22:58;7.07;;;2.03;;
62994;SDS011;49086;52.300;4.850;2022-09-03T18:26:27;5.18;;;1.70;;
62994;SDS011;49086;52.300;4.850;2022-09-03T18:32:50;4.75;;;1.80;;
62994;SDS011;49086;52.300;4.850;2022-09-03T18:35:44;5.07;;;1.63;;
62994;SDS011;49086;52.300;4.850;2022-09-03T18:38:32;3.85;;;1.80;;
62994;SDS011;49086;52.300;4.850;2022-09-03T18:50:48;3.58;;;1.75;;
62994;SDS011;49086;52.300;4.850;2022-09-03T18:54:08;3.45;;;1.80;;
62994;SDS011;49086;52.300;4.850;2022-09-03T18:57:10;4.10;;;1.92;;
62994;SDS011;49086;52.300;4.850;2022-09-03T19:00:13;3.58;;;2.00;;
62994;SDS011;49086;52.300;4.850;2022-09-03T19:06:31;3.07;;;1.83;;
62994;SDS011;49086;52.300;4.850;2022-09-03T19:12:53;3.28;;;2.08;;
62994;SDS011;49086;52.300;4.850;2022-09-03T19:16:21;6.20;;;1.95;;
62994;SDS011;49086;52.300;4.850;2022-09-03T19:19:32;5.07;;;2.35;;
62994;SDS011;49086;52.300;4.850;2022-09-03T19:22:38;5.32;;;1.83;;
62994;SDS011;49086;52.300;4.850;2022-09-03T19:25:26;7.38;;;2.40;;
62994;SDS011;49086;52.300;4.850;2022-09-03T19:28:25;5.75;;;2.20;;
62994;SDS011;49086;52.300;4.850;2022-09-03T19:41:04;4.45;;;2.63;;
62994;SDS011;49086;52.300;4.850;2022-09-03T19:48:07;4.82;;;2.47;;
62994;SDS011;49086;52.300;4.850;2022-09-03T19:51:08;4.70;;;2.80;;
62994;SDS011;49086;52.300;4.850;2022-09-03T19:54:06;3.72;;;2.60;;
62994;SDS011;49086;52.300;4.850;2022-09-03T19:57:24;4.38;;;3.28;;
62994;SDS011;49086;52.300;4.850;2022-09-03T20:00:13;5.47;;;3.38;;
62994;SDS011;49086;52.300;4.850;2022-09-03T20:02:57;5.78;;;3.25;;
62994;SDS011;49086;52.300;4.850;2022-09-03T20:06:00;6.35;;;3.17;;
62994;SDS011;49086;52.300;4.850;2022-09-03T20:09:03;4.68;;;3.17;;
62994;SDS011;49086;52.300;4.850;2022-09-03T20:12:12;7.03;;;2.80;;
62994;SDS011;49086;52.300;4.850;2022-09-03T20:15:07;5.15;;;3.28;;
62994;SDS011;49086;52.300;4.850;2022-09-03T20:30:22;5.72;;;2.80;;
62994;SDS011;49086;52.300;4.850;2022-09-03T20:42:55;6.90;;;3.55;;
62994;SDS011;49086;52.300;4.850;2022-09-03T20:46:18;5.90;;;3.75;;
62994;SDS011;49086;52.300;4.850;2022-09-03T20:51:54;5.07;;;2.92;;
62994;SDS011;49086;52.300;4.850;2022-09-03T21:01:33;6.30;;;2.65;;
62994;SDS011;49086;52.300;4.850;2022-09-03T21:19:03;4.78;;;3.22;;
62994;SDS011;49086;52.300;4.850;2022-09-03T21:25:06;8.63;;;3.00;;
62994;SDS011;49086;52.300;4.850;2022-09-03T21:27:54;4.22;;;2.90;;
62994;SDS011;49086;52.300;4.850;2022-09-03T21:30:26;4.80;;;2.97;;
62994;SDS011;49086;52.300;4.850;2022-09-03T21:33:09;7.13;;;3.00;;
62994;SDS011;49086;52.300;4.850;2022-09-03T21:36:23;4.22;;;2.88;;
62994;SDS011;49086;52.300;4.850;2022-09-03T21:39:08;6.00;;;2.97;;
62994;SDS011;49086;52.300;4.850;2022-09-03T21:45:04;4.65;;;2.72;;
62994;SDS011;49086;52.300;4.850;2022-09-03T21:48:16;6.05;;;2.95;;
62994;SDS011;49086;52.300;4.850;2022-09-03T21:50:52;4.43;;;2.53;;
62994;SDS011;49086;52.300;4.850;2022-09-03T21:53:47;6.18;;;3.17;;
62994;SDS011;49086;52.300;4.850;2022-09-03T22:02:43;5.85;;;2.53;;
62994;SDS011;49086;52.300;4.850;2022-09-03T22:05:25;6.05;;;3.58;;
62994;SDS011;49086;52.300;4.850;2022-09-03T22:11:09;4.70;;;2.90;;
62994;SDS011;49086;52.300;4.850;2022-09-03T22:13:48;5.68;;;2.95;;
62994;SDS011;49086;52.300;4.850;2022-09-03T22:16:44;6.30;;;2.97;;
62994;SDS011;49086;52.300;4.850;2022-09-03T22:19:32;5.95;;;2.80;;
62994;SDS011;49086;52.300;4.850;2022-09-03T22:25:35;4.20;;;2.70;;
62994;SDS011;49086;52.300;4.850;2022-09-03T22:31:41;4.93;;;3.28;;
62994;SDS011;49086;52.300;4.850;2022-09-03T22:34:40;6.28;;;3.20;;
62994;SDS011;49086;52.300;4.850;2022-09-03T22:46:16;6.10;;;3.28;;
62994;SDS011;49086;52.300;4.850;2022-09-03T22:55:17;6.65;;;3.20;;
62994;SDS011;49086;52.300;4.850;2022-09-03T23:00:41;4.10;;;2.97;;
62994;SDS011;49086;52.300;4.850;2022-09-03T23:06:45;7.93;;;3.40;;